Time;durP1;ratioP1;P1;durP2;ratioP2;P2;SDS_P1;SDS_P2;PMS_P1;PMS_P2;Temp;Humidity;BMP_temperature;BMP_pressure;BME280_temperature;BME280_humidity;BME280_pressure;Samples;Min_cycle;Max_cycle;Signal;HPM_P1;HPM_P2
2023/03/03 00:00:57;;;;;;;6.35;4.97;;;;;;;3.20;92.08;102584.19;5038554;28;20123;-72
2023/03/03 00:03:24;;;;;;;5.70;5.05;;;;;;;3.20;92.24;102591.06;5034463;28;20084;-72
2023/03/03 00:05:50;;;;;;;6.63;5.32;;;;;;;3.20;92.26;102588.47;5034762;28;20037;-72
2023/03/03 00:08:17;;;;;;;5.88;5.20;;;;;;;3.19;92.12;102585.03;5038083;28;20088;-72
2023/03/03 00:10:43;;;;;;;7.35;5.88;;;;;;;3.19;92.73;102581.56;5036286;28;20041;-72
2023/03/03 00:13:20;;;;;;;7.95;6.25;;;;;;;3.16;92.25;102582.38;5038979;28;20271;-72
2023/03/03 00:15:47;;;;;;;8.77;6.00;;;;;;;3.15;92.44;102587.53;5037003;28;20037;-72
2023/03/03 00:18:35;;;;;;;9.35;5.70;;;;;;;3.14;92.27;102593.56;5038928;28;20245;-72
2023/03/03 00:21:02;;;;;;;8.38;5.80;;;;;;;3.12;92.32;102593.53;5038863;28;20075;-72
2023/03/03 00:23:36;;;;;;;9.32;6.63;;;;;;;3.11;92.24;102593.50;5038631;28;20240;-72
2023/03/03 00:26:15;;;;;;;7.65;5.65;;;;;;;3.10;92.24;102589.16;5036620;28;20053;-72
2023/03/03 00:28:46;;;;;;;7.55;6.15;;;;;;;3.10;92.35;102591.75;5038877;28;20123;-72
2023/03/03 00:31:18;;;;;;;8.20;6.22;;;;;;;3.10;92.50;102596.94;5037840;28;20037;-72
2023/03/03 00:33:53;;;;;;;7.90;5.85;;;;;;;3.08;92.45;102591.72;5038230;28;20021;-72
2023/03/03 00:36:55;;;;;;;7.88;6.68;;;;;;;3.07;92.61;102602.91;5038608;28;20080;-72
2023/03/03 00:39:37;;;;;;;9.85;6.78;;;;;;;3.06;92.54;102593.41;4996109;28;20071;-72
2023/03/03 00:42:17;;;;;;;8.98;6.47;;;;;;;3.04;92.68;102600.28;5036055;28;20068;-72
2023/03/03 00:44:44;;;;;;;9.18;7.25;;;;;;;3.03;92.73;102599.41;5035127;28;20049;-72
2023/03/03 00:47:48;;;;;;;7.55;6.60;;;;;;;3.02;92.91;102596.78;5038436;28;20061;-72
2023/03/03 00:50:26;;;;;;;11.55;7.38;;;;;;;3.01;92.89;102593.31;4957589;29;20051;-72
2023/03/03 00:53:18;;;;;;;9.23;6.72;;;;;;;3.01;92.98;102587.28;4956685;29;20035;-72
2023/03/03 00:55:45;;;;;;;9.60;6.32;;;;;;;3.02;92.90;102596.78;5014842;28;20045;-72
2023/03/03 00:58:11;;;;;;;7.72;6.72;;;;;;;3.00;92.93;102585.53;5038241;28;20368;-72
2023/03/03 01:00:38;;;;;;;9.40;6.80;;;;;;;2.99;93.05;102588.97;5037949;28;20083;-72
2023/03/03 01:03:11;;;;;;;8.80;6.90;;;;;;;2.97;93.10;102593.25;5038606;28;20365;-72
2023/03/03 01:05:36;;;;;;;8.63;7.10;;;;;;;2.96;93.06;102591.50;5038162;28;20259;-72
2023/03/03 01:08:02;;;;;;;12.32;9.15;;;;;;;2.94;93.07;102588.00;5038575;28;20041;-72
2023/03/03 01:10:31;;;;;;;11.32;7.07;;;;;;;2.90;92.85;102588.78;5037966;28;20048;-72
2023/03/03 01:12:57;;;;;;;11.70;7.50;;;;;;;2.87;93.01;102594.78;5038214;28;20337;-72
2023/03/03 01:15:23;;;;;;;9.77;7.45;;;;;;;2.85;92.97;102591.28;5037788;28;20049;-72
2023/03/03 01:17:49;;;;;;;12.88;8.43;;;;;;;2.81;92.95;102592.94;5038407;28;20341;-72
2023/03/03 01:20:15;;;;;;;11.40;8.35;;;;;;;2.79;92.99;102597.22;5038320;28;20033;-72
2023/03/03 01:22:41;;;;;;;12.25;8.10;;;;;;;2.76;93.08;102591.97;5038267;28;20206;-72
2023/03/03 01:25:07;;;;;;;13.43;7.78;;;;;;;2.76;93.28;102597.16;5038450;28;20048;-72
2023/03/03 01:27:34;;;;;;;13.13;8.57;;;;;;;2.77;93.26;102590.28;5037390;28;20053;-72
2023/03/03 01:29:59;;;;;;;9.65;7.40;;;;;;;2.78;93.48;102587.69;5038238;28;20037;-72
2023/03/03 01:32:26;;;;;;;11.80;7.78;;;;;;;2.77;93.44;102592.88;5037257;28;20061;-72
2023/03/03 01:34:51;;;;;;;9.55;7.35;;;;;;;2.77;93.53;102595.44;5038377;28;20279;-72
2023/03/03 01:37:17;;;;;;;11.18;7.75;;;;;;;2.76;93.58;102588.50;5037770;28;20045;-72
2023/03/03 01:39:46;;;;;;;10.20;7.45;;;;;;;2.75;93.50;102597.09;5037590;28;20052;-72
2023/03/03 01:42:11;;;;;;;10.65;7.63;;;;;;;2.74;93.41;102596.25;5037860;28;20049;-72
2023/03/03 01:44:37;;;;;;;12.68;7.13;;;;;;;2.73;93.44;102599.69;5037037;28;20049;-72
2023/03/03 01:47:23;;;;;;;11.02;7.22;;;;;;;2.72;93.49;102597.94;5037927;28;20033;-72
2023/03/03 01:49:57;;;;;;;10.18;6.85;;;;;;;2.72;93.63;102597.94;5037725;28;20042;-72
2023/03/03 01:52:36;;;;;;;10.23;7.15;;;;;;;2.70;93.57;102604.78;5037197;28;20178;-72
2023/03/03 01:55:11;;;;;;;10.02;5.82;;;;;;;2.69;93.32;102600.44;5038590;28;20524;-72
2023/03/03 01:57:41;;;;;;;9.07;6.47;;;;;;;2.70;93.66;102594.44;5036196;28;20379;-72
2023/03/03 02:00:09;;;;;;;10.98;6.72;;;;;;;2.69;93.67;102598.75;5037732;28;20041;-72
2023/03/03 02:02:35;;;;;;;9.32;6.25;;;;;;;2.70;93.89;102591.84;5036756;28;20045;-72
2023/03/03 02:05:00;;;;;;;7.15;5.68;;;;;;;2.69;93.91;102598.75;5037503;28;20041;-72
2023/03/03 02:07:28;;;;;;;7.55;5.43;;;;;;;2.69;93.94;102590.09;5037324;28;20101;-72
2023/03/03 02:10:08;;;;;;;7.63;5.72;;;;;;;2.69;93.91;102590.09;5037615;28;20041;-72
2023/03/03 02:12:39;;;;;;;7.43;5.05;;;;;;;2.70;94.10;102597.03;5036823;28;20041;-72
2023/03/03 02:15:16;;;;;;;6.88;5.28;;;;;;;2.71;94.08;102588.44;5037568;28;20155;-72
2023/03/03 02:17:43;;;;;;;7.53;5.78;;;;;;;2.71;94.13;102587.53;5037454;28;20343;-72
2023/03/03 02:20:18;;;;;;;7.82;5.70;;;;;;;2.69;94.19;102588.41;5037415;28;20306;-72
2023/03/03 02:22:47;;;;;;;8.13;6.07;;;;;;;2.67;94.06;102582.34;5037534;28;20048;-72
2023/03/03 02:25:26;;;;;;;5.43;4.75;;;;;;;2.68;94.24;102588.38;5037958;28;20410;-72
2023/03/03 02:27:51;;;;;;;5.72;4.72;;;;;;;2.68;94.24;102585.78;5037260;28;20037;-72
2023/03/03 02:30:20;;;;;;;6.72;5.00;;;;;;;2.68;94.25;102585.78;5036962;28;20116;-72
2023/03/03 02:32:45;;;;;;;8.53;5.30;;;;;;;2.67;94.23;102584.03;5037409;28;20041;-72
2023/03/03 02:35:32;;;;;;;4.82;4.30;;;;;;;2.66;94.32;102588.34;5037556;28;20280;-72
2023/03/03 02:38:26;;;;;;;4.47;4.07;;;;;;;2.67;94.34;102584.94;5037571;28;20304;-72
2023/03/03 02:41:10;;;;;;;6.15;4.38;;;;;;;2.65;94.40;102584.00;5010520;28;20049;-72
2023/03/03 02:43:45;;;;;;;4.47;3.83;;;;;;;2.65;94.37;102581.41;5034956;28;20053;-72
2023/03/03 02:46:11;;;;;;;4.40;4.00;;;;;;;2.65;94.32;102577.94;5037291;28;20033;-72
2023/03/03 02:48:36;;;;;;;4.82;4.38;;;;;;;2.63;94.43;102580.50;5036959;28;20091;-72
2023/03/03 02:51:01;;;;;;;6.47;4.40;;;;;;;2.62;94.35;102580.47;5037628;28;20064;-72
2023/03/03 02:53:27;;;;;;;5.13;4.30;;;;;;;2.61;94.46;102584.78;5037126;28;20128;-72
2023/03/03 02:55:52;;;;;;;5.63;4.65;;;;;;;2.61;94.55;102576.16;5037532;28;20048;-72
2023/03/03 02:58:18;;;;;;;6.13;4.68;;;;;;;2.61;94.60;102578.75;5037030;28;20076;-72
2023/03/03 03:00:46;;;;;;;7.30;4.50;;;;;;;2.61;94.65;102584.78;5036861;28;20041;-72
2023/03/03 03:03:12;;;;;;;5.65;4.60;;;;;;;2.63;94.71;102577.06;5037314;28;20248;-72
2023/03/03 03:05:37;;;;;;;4.95;4.40;;;;;;;2.64;94.78;102587.44;5022925;28;20053;-72
2023/03/03 03:08:02;;;;;;;5.88;4.78;;;;;;;2.63;94.84;102583.09;5018374;28;20265;-72
2023/03/03 03:10:28;;;;;;;6.80;4.70;;;;;;;2.63;94.86;102590.00;5034249;28;20045;-72
2023/03/03 03:12:53;;;;;;;6.03;4.63;;;;;;;2.64;95.15;102594.34;5041006;28;20079;-72
2023/03/03 03:15:19;;;;;;;5.22;4.72;;;;;;;2.66;95.10;102595.22;5040381;28;20073;-72
2023/03/03 03:17:44;;;;;;;5.93;4.30;;;;;;;2.65;95.09;102589.16;5040505;28;20048;-72
2023/03/03 03:20:10;;;;;;;5.55;4.40;;;;;;;2.64;95.09;102595.19;5040594;28;20036;-72
2023/03/03 03:22:36;;;;;;;5.22;4.72;;;;;;;2.64;95.11;102591.75;5040622;28;20032;-72
2023/03/03 03:25:01;;;;;;;6.38;5.03;;;;;;;2.64;95.07;102594.34;5039494;28;20045;-72
2023/03/03 03:27:26;;;;;;;7.97;5.80;;;;;;;2.61;95.18;102597.72;5039777;28;20611;-72
2023/03/03 03:29:52;;;;;;;9.48;6.25;;;;;;;2.58;95.03;102597.63;5040332;28;20064;-72
2023/03/03 03:32:17;;;;;;;7.90;5.65;;;;;;;2.54;95.02;102598.44;5040700;28;20083;-72
2023/03/03 03:34:43;;;;;;;9.35;6.50;;;;;;;2.50;95.37;102600.06;5039888;28;20112;-72
2023/03/03 03:37:08;;;;;;;9.43;6.75;;;;;;;2.45;95.76;102606.00;5040777;28;20120;-72
2023/03/03 03:39:34;;;;;;;8.23;6.10;;;;;;;2.44;95.99;102601.69;5039304;28;20110;-72
2023/03/03 03:42:00;;;;;;;13.20;7.28;;;;;;;2.41;96.57;102606.78;5040472;28;20299;-72
2023/03/03 03:44:25;;;;;;;8.55;6.68;;;;;;;2.38;96.67;102599.81;5038313;28;20287;-72
2023/03/03 03:46:50;;;;;;;10.15;7.10;;;;;;;2.38;96.80;102596.34;5039413;28;20090;-71
2023/03/03 03:49:16;;;;;;;12.30;8.77;;;;;;;2.36;97.30;102601.50;5038281;28;20041;-71
2023/03/03 03:51:41;;;;;;;12.35;7.82;;;;;;;2.36;97.47;102604.06;5038569;28;20033;-71
2023/03/03 03:54:07;;;;;;;13.15;7.30;;;;;;;2.36;97.55;102606.66;5038676;28;20041;-71
2023/03/03 03:56:34;;;;;;;10.48;6.93;;;;;;;2.38;97.73;102604.13;5038141;28;20249;-71
2023/03/03 03:58:59;;;;;;;12.43;7.68;;;;;;;2.41;97.91;102606.78;5038435;28;20045;-72
2023/03/03 04:01:25;;;;;;;7.68;6.43;;;;;;;2.43;98.08;102602.50;5039680;28;20052;-72
2023/03/03 04:03:51;;;;;;;10.40;7.43;;;;;;;2.44;98.27;102602.53;5039676;28;20045;-72
2023/03/03 04:06:17;;;;;;;13.00;9.38;;;;;;;2.44;98.23;102607.72;5039642;28;20108;-72
2023/03/03 04:08:42;;;;;;;14.13;9.13;;;;;;;2.42;98.44;102608.50;5039588;28;20040;-72
2023/03/03 04:11:07;;;;;;;14.90;9.40;;;;;;;2.38;98.79;102610.16;5039852;28;20104;-73
2023/03/03 04:13:34;;;;;;;10.88;7.00;;;;;;;2.38;99.08;102610.16;5038758;28;20037;-72
2023/03/03 04:16:00;;;;;;;11.32;8.23;;;;;;;2.38;99.29;102610.16;5039697;28;20048;-72
2023/03/03 04:18:25;;;;;;;12.52;8.68;;;;;;;2.38;99.36;102610.16;5039082;28;20216;-72
2023/03/03 04:20:53;;;;;;;17.88;9.90;;;;;;;2.37;99.62;102612.72;5039076;28;20048;-72
2023/03/03 04:23:18;;;;;;;12.38;8.45;;;;;;;2.36;99.69;102608.38;5038889;28;20041;-72
2023/03/03 04:25:47;;;;;;;13.75;7.28;;;;;;;2.37;99.80;102604.97;5039355;28;20366;-73
2023/03/03 04:28:14;;;;;;;14.63;9.35;;;;;;;2.38;99.82;102617.91;5039364;28;20092;-73
2023/03/03 04:30:39;;;;;;;9.30;7.50;;;;;;;2.41;100.00;102617.13;5038935;28;20064;-73
2023/03/03 04:33:05;;;;;;;9.43;7.03;;;;;;;2.43;100.00;102611.13;5039731;28;20040;-73
2023/03/03 04:35:30;;;;;;;8.27;6.38;;;;;;;2.48;100.00;102611.25;5038984;28;20045;-73
2023/03/03 04:37:56;;;;;;;7.40;6.07;;;;;;;2.53;100.00;102616.50;5039420;28;20052;-73
2023/03/03 04:40:21;;;;;;;9.30;7.28;;;;;;;2.56;100.00;102616.56;5038731;28;20332;-73
2023/03/03 04:42:47;;;;;;;7.22;6.43;;;;;;;2.57;100.00;102616.59;5039169;28;20371;-73
2023/03/03 04:45:12;;;;;;;13.95;8.00;;;;;;;2.59;99.96;102614.91;5038757;28;20065;-73
2023/03/03 04:47:38;;;;;;;9.52;7.53;;;;;;;2.61;99.95;102612.38;5038639;28;20079;-72
2023/03/03 04:50:04;;;;;;;10.45;7.40;;;;;;;2.63;99.95;102616.72;5039266;28;20049;-72
2023/03/03 04:52:29;;;;;;;16.75;9.32;;;;;;;2.65;99.96;102619.34;5038482;28;20036;-73
2023/03/03 04:54:54;;;;;;;10.38;7.40;;;;;;;2.65;99.80;102619.34;5039118;28;20037;-73
2023/03/03 04:57:20;;;;;;;10.77;7.65;;;;;;;2.64;99.78;102621.06;5038535;28;20292;-73
2023/03/03 04:59:45;;;;;;;11.27;7.63;;;;;;;2.63;99.60;102621.91;5038530;28;20248;-73
2023/03/03 05:02:12;;;;;;;9.82;7.50;;;;;;;2.63;99.59;102624.47;5038586;28;20099;-73
2023/03/03 05:04:37;;;;;;;8.20;7.30;;;;;;;2.63;99.56;102628.78;5036536;28;20039;-73
2023/03/03 05:07:03;;;;;;;11.45;7.03;;;;;;;2.63;99.73;102628.78;5038705;28;20222;-73
2023/03/03 05:09:28;;;;;;;11.88;7.28;;;;;;;2.62;99.66;102627.03;5038109;28;20044;-73
2023/03/03 05:11:54;;;;;;;9.82;7.47;;;;;;;2.63;99.72;102633.97;5038818;28;20056;-73
2023/03/03 05:14:19;;;;;;;8.07;6.85;;;;;;;2.64;99.79;102636.59;5037860;28;20048;-73
2023/03/03 05:16:45;;;;;;;8.82;7.07;;;;;;;2.65;99.81;102629.69;5038481;28;20244;-73
2023/03/03 05:19:11;;;;;;;8.88;7.00;;;;;;;2.65;99.80;102635.72;5038516;28;20100;-73
2023/03/03 05:21:36;;;;;;;11.43;7.70;;;;;;;2.65;99.93;102634.88;5037866;28;20041;-73
2023/03/03 05:24:01;;;;;;;11.23;7.65;;;;;;;2.66;99.83;102637.50;5038135;28;20060;-73
2023/03/03 05:26:27;;;;;;;10.40;7.70;;;;;;;2.65;99.79;102632.28;5038158;28;20100;-73
2023/03/03 05:28:52;;;;;;;13.77;8.77;;;;;;;2.63;99.62;102636.56;5037856;28;20108;-73
2023/03/03 05:31:17;;;;;;;12.63;7.93;;;;;;;2.63;100.00;102628.78;5037846;28;20041;-73
2023/03/03 05:33:43;;;;;;;12.43;8.48;;;;;;;2.59;99.73;102633.03;5037985;28;20033;-73
2023/03/03 05:36:08;;;;;;;10.07;7.28;;;;;;;2.56;100.00;102624.31;5038174;28;20112;-72
2023/03/03 05:38:34;;;;;;;8.68;6.88;;;;;;;2.55;99.86;102625.16;5037720;28;20047;-72
2023/03/03 05:40:59;;;;;;;8.45;6.38;;;;;;;2.54;100.00;102626.00;5037762;28;20051;-72
2023/03/03 05:43:25;;;;;;;9.18;6.65;;;;;;;2.53;100.00;102627.75;5037224;28;20237;-72
2023/03/03 05:45:55;;;;;;;8.55;6.45;;;;;;;2.56;100.00;102625.19;5038481;28;20056;-72
2023/03/03 05:48:21;;;;;;;6.65;5.95;;;;;;;2.58;100.00;102626.09;5037766;28;20045;-72
2023/03/03 05:50:46;;;;;;;9.57;7.05;;;;;;;2.59;100.00;102627.00;5037855;28;20056;-72
2023/03/03 05:53:11;;;;;;;9.23;6.65;;;;;;;2.63;100.00;102623.63;5038011;28;20107;-72
2023/03/03 05:55:37;;;;;;;8.45;6.68;;;;;;;2.67;100.00;102630.59;5037198;28;20055;-72
2023/03/03 05:58:02;;;;;;;9.10;7.18;;;;;;;2.68;100.00;102622.00;5037753;28;20049;-72
2023/03/03 06:00:27;;;;;;;13.10;7.70;;;;;;;2.63;100.00;102621.91;5036923;28;20048;-72
2023/03/03 06:02:53;;;;;;;10.23;7.55;;;;;;;2.60;100.00;102628.72;5038019;28;20047;-72
2023/03/03 06:05:19;;;;;;;8.90;6.85;;;;;;;2.57;100.00;102632.13;5037091;28;20053;-72
2023/03/03 06:07:44;;;;;;;12.30;7.30;;;;;;;2.56;100.00;102634.69;5037872;28;20038;-72
2023/03/03 06:10:10;;;;;;;8.80;6.75;;;;;;;2.52;100.00;102636.31;5037640;28;20053;-72
2023/03/03 06:12:36;;;;;;;10.63;7.05;;;;;;;2.50;100.00;102635.41;5037582;28;20080;-72
2023/03/03 06:15:01;;;;;;;11.05;7.20;;;;;;;2.48;100.00;102635.38;5037406;28;20248;-72
2023/03/03 06:17:27;;;;;;;13.10;7.22;;;;;;;2.46;100.00;102638.78;5037209;28;20038;-72
2023/03/03 06:19:52;;;;;;;9.23;7.22;;;;;;;2.45;100.00;102642.19;5037518;28;20037;-72
2023/03/03 06:22:18;;;;;;;9.48;6.88;;;;;;;2.45;100.00;102643.06;5037631;28;20284;-72
2023/03/03 06:24:43;;;;;;;8.95;6.78;;;;;;;2.46;100.00;102638.78;5037300;28;20225;-72
2023/03/03 06:27:09;;;;;;;10.40;6.65;;;;;;;2.48;100.00;102650.91;5037814;28;20040;-72
2023/03/03 06:29:34;;;;;;;10.18;7.53;;;;;;;2.49;100.00;102654.34;5036841;28;20041;-72
2023/03/03 06:31:59;;;;;;;9.98;6.82;;;;;;;2.52;100.00;102654.44;5037758;28;20045;-72
2023/03/03 06:34:25;;;;;;;8.18;6.55;;;;;;;2.51;100.00;102655.28;5036812;28;20072;-72
2023/03/03 06:36:51;;;;;;;7.15;6.03;;;;;;;2.50;100.00;102651.81;5037503;28;20056;-72
2023/03/03 06:39:16;;;;;;;9.65;5.93;;;;;;;2.53;100.00;102658.78;5037166;28;20044;-73
2023/03/03 06:41:42;;;;;;;10.30;6.50;;;;;;;2.54;100.00;102657.06;5037005;28;20045;-73
2023/03/03 06:44:07;;;;;;;6.75;5.20;;;;;;;2.56;100.00;102657.94;5039762;28;20045;-73
2023/03/03 06:46:33;;;;;;;7.28;6.35;;;;;;;2.58;100.00;102658.84;5040607;28;20025;-73
2023/03/03 06:48:58;;;;;;;8.75;5.93;;;;;;;2.60;100.00;102662.34;5041231;28;20115;-73
2023/03/03 06:51:28;;;;;;;7.55;6.75;;;;;;;2.59;100.00;102661.47;5040515;28;20045;-73
2023/03/03 06:53:55;;;;;;;10.70;6.88;;;;;;;2.59;100.00;102664.06;5041464;28;20233;-72
2023/03/03 06:56:23;;;;;;;7.55;6.63;;;;;;;2.58;100.00;102671.78;5040911;28;20584;-72
2023/03/03 06:58:55;;;;;;;10.48;7.35;;;;;;;2.56;100.00;102679.50;5039052;28;20025;-72
2023/03/03 07:01:20;;;;;;;10.73;7.50;;;;;;;2.53;100.00;102678.56;5040615;28;20041;-72
2023/03/03 07:03:46;;;;;;;15.02;7.15;;;;;;;2.48;100.00;102678.50;5041175;28;20045;-73
2023/03/03 07:06:26;;;;;;;7.68;6.93;;;;;;;2.44;100.00;102677.53;5040796;28;20056;-72
2023/03/03 07:08:53;;;;;;;7.72;5.72;;;;;;;2.44;100.00;102685.31;5041268;28;20041;-72
2023/03/03 07:11:21;;;;;;;8.45;6.07;;;;;;;2.47;100.00;102687.06;5040398;28;20071;-72
2023/03/03 07:13:51;;;;;;;5.90;5.35;;;;;;;2.50;100.00;102695.78;5040912;28;20029;-72
2023/03/03 07:16:18;;;;;;;7.03;5.72;;;;;;;2.56;100.00;102689.00;5039250;28;20236;-72
2023/03/03 07:18:47;;;;;;;4.90;4.50;;;;;;;2.61;100.00;102690.84;5040632;28;20032;-72
2023/03/03 07:21:16;;;;;;;8.63;6.90;;;;;;;2.65;100.00;102702.13;5040390;28;20155;-72
2023/03/03 07:23:44;;;;;;;6.60;5.95;;;;;;;2.67;100.00;102697.84;5040802;28;20329;-73
2023/03/03 07:26:15;;;;;;;14.43;6.22;;;;;;;2.69;100.00;102707.41;5040274;28;20037;-74
2023/03/03 07:28:42;;;;;;;10.23;6.30;;;;;;;2.71;100.00;102706.56;5040364;28;20037;-74
2023/03/03 07:31:30;;;;;;;7.90;6.20;;;;;;;2.71;100.00;102699.69;5040201;28;20108;-74
2023/03/03 07:33:58;;;;;;;7.28;5.45;;;;;;;2.71;100.00;102703.97;5040493;28;20052;-74
2023/03/03 07:36:28;;;;;;;7.25;5.90;;;;;;;2.72;100.00;102700.56;5039161;28;20041;-74
2023/03/03 07:38:57;;;;;;;8.15;6.75;;;;;;;2.73;100.00;102713.53;5034802;28;20043;-74
2023/03/03 07:41:22;;;;;;;;;;;;;;;2.74;100.00;102704.91;5035641;28;20280;-74
2023/03/03 07:44:18;;;;;;;6.17;4.83;;;;;;;2.76;100.00;102711.00;5034003;28;19925;-74
2023/03/03 07:46:49;;;;;;;6.68;5.97;;;;;;;2.79;100.00;102711.06;5037418;28;20303;-74
2023/03/03 07:49:34;;;;;;;7.00;6.00;;;;;;;2.80;100.00;102710.25;5039594;28;20296;-74
2023/03/03 07:52:01;;;;;;;7.53;6.68;;;;;;;2.80;100.00;102704.16;5039991;28;20045;-74
2023/03/03 07:54:29;;;;;;;7.72;6.18;;;;;;;2.81;100.00;102711.97;5038357;28;20068;-74
2023/03/03 07:57:01;;;;;;;10.30;7.22;;;;;;;2.84;100.00;102718.94;5039706;28;20087;-74
2023/03/03 07:59:26;;;;;;;10.55;7.60;;;;;;;2.86;100.00;102725.88;5038127;28;20044;-74
2023/03/03 08:01:56;;;;;;;7.28;6.25;;;;;;;2.88;100.00;102729.38;5038572;28;20112;-74
2023/03/03 08:04:23;;;;;;;7.05;6.35;;;;;;;2.93;100.00;102733.78;5034104;28;20096;-74
2023/03/03 08:07:10;;;;;;;12.27;7.85;;;;;;;2.92;100.00;102729.44;5037511;28;20453;-74
2023/03/03 08:09:37;;;;;;;7.22;6.53;;;;;;;2.89;100.00;102727.66;5038724;28;20359;-74
2023/03/03 08:12:06;;;;;;;8.75;7.13;;;;;;;2.90;100.00;102728.56;5037769;28;20248;-74
2023/03/03 08:14:36;;;;;;;8.32;6.65;;;;;;;2.90;100.00;102739.78;5036690;28;20255;-74
2023/03/03 08:17:20;;;;;;;9.45;6.68;;;;;;;2.92;100.00;102740.66;5039439;28;20033;-74
2023/03/03 08:19:46;;;;;;;7.38;6.15;;;;;;;2.95;100.00;102747.63;5039125;28;20391;-74
2023/03/03 08:22:16;;;;;;;10.63;7.15;;;;;;;2.96;100.00;102754.56;5037096;28;20334;-74
2023/03/03 08:24:42;;;;;;;8.10;6.82;;;;;;;2.98;100.00;102752.88;5037926;28;20041;-74
2023/03/03 08:27:07;;;;;;;8.15;6.72;;;;;;;2.99;100.00;102752.91;5036144;28;20067;-74
2023/03/03 08:29:32;;;;;;;10.32;8.10;;;;;;;3.01;100.00;102760.72;5037770;28;20041;-74
2023/03/03 08:31:58;;;;;;;8.85;7.05;;;;;;;3.03;100.00;102757.28;5036505;28;20076;-74
2023/03/03 08:34:23;;;;;;;12.05;7.93;;;;;;;3.04;100.00;102753.88;5017705;28;20038;-73
2023/03/03 08:36:49;;;;;;;13.15;7.63;;;;;;;3.05;100.00;102768.56;5031595;28;20045;-73
2023/03/03 08:39:14;;;;;;;12.75;7.43;;;;;;;3.06;100.00;102769.44;5033010;28;20049;-73
2023/03/03 08:41:42;;;;;;;7.07;6.25;;;;;;;3.08;100.00;102766.03;5031153;28;20048;-74
2023/03/03 08:44:08;;;;;;;14.75;8.15;;;;;;;3.11;100.00;102766.94;5035243;28;20033;-74
2023/03/03 08:46:33;;;;;;;8.90;7.05;;;;;;;3.12;100.00;102768.72;5036011;28;20074;-74
2023/03/03 08:48:59;;;;;;;7.20;6.50;;;;;;;3.13;100.00;102760.97;5035874;28;20183;-74
2023/03/03 08:51:25;;;;;;;9.30;6.80;;;;;;;3.15;100.00;102772.22;5034259;28;20507;-74
2023/03/03 08:53:51;;;;;;;6.90;6.20;;;;;;;3.20;100.00;102773.22;5033420;28;20029;-74
2023/03/03 08:56:16;;;;;;;8.27;6.00;;;;;;;3.24;100.00;102772.41;5034063;28;20386;-74
2023/03/03 08:58:46;;;;;;;7.20;6.47;;;;;;;3.25;100.00;102778.47;5031746;28;20623;-74
2023/03/03 09:01:13;;;;;;;11.57;7.45;;;;;;;3.27;100.00;102774.19;5037235;28;20052;-74
2023/03/03 09:03:38;;;;;;;7.50;6.70;;;;;;;3.29;100.00;102780.28;5042306;28;20025;-74
2023/03/03 09:06:04;;;;;;;11.52;8.23;;;;;;;3.33;100.00;102771.75;5036996;28;20064;-74
2023/03/03 09:08:29;;;;;;;13.80;8.70;;;;;;;3.35;100.00;102771.78;5038346;28;20028;-74
2023/03/03 09:10:54;;;;;;;10.02;7.50;;;;;;;3.40;100.00;102780.50;5032741;28;20112;-74
2023/03/03 09:13:20;;;;;;;11.13;7.25;;;;;;;3.44;100.00;102780.59;5032361;28;20103;-74
2023/03/03 09:15:46;;;;;;;13.82;9.35;;;;;;;3.46;100.00;102768.53;5036405;28;20033;-74
2023/03/03 09:18:16;;;;;;;12.45;9.23;;;;;;;3.49;100.00;102775.50;5034934;28;20045;-74
2023/03/03 09:20:44;;;;;;;14.57;9.43;;;;;;;3.52;100.00;102779.88;5031247;28;20100;-74
2023/03/03 09:23:37;;;;;;;13.77;8.83;;;;;;;3.55;100.00;102777.34;5034442;28;20343;-74
2023/03/03 09:26:44;;;;;;;16.70;9.85;;;;;;;3.58;100.00;102775.66;5033971;28;20100;-74
2023/03/03 09:29:12;;;;;;;16.00;9.02;;;;;;;3.61;100.00;102775.75;5027209;28;20049;-74
2023/03/03 09:31:53;;;;;;;16.20;9.05;;;;;;;3.63;100.00;102780.94;5035199;28;20191;-74
2023/03/03 09:34:26;;;;;;;13.50;9.00;;;;;;;3.67;100.00;102776.69;5036526;28;20056;-74
2023/03/03 09:36:54;;;;;;;12.52;8.75;;;;;;;3.67;100.00;102774.13;5035619;28;20429;-74
2023/03/03 09:39:28;;;;;;;12.23;8.95;;;;;;;3.69;100.00;102782.78;5036264;28;20043;-74
2023/03/03 09:42:01;;;;;;;13.73;9.05;;;;;;;3.72;100.00;102775.06;5034863;28;20076;-74
2023/03/03 09:44:44;;;;;;;14.38;9.02;;;;;;;3.73;100.00;102776.81;5035092;28;20053;-74
2023/03/03 09:47:29;;;;;;;19.52;8.35;;;;;;;3.76;100.00;102776.88;5036569;28;20057;-74
2023/03/03 09:50:35;;;;;;;13.10;8.23;;;;;;;3.80;100.00;102776.06;5032325;28;20084;-74
2023/03/03 09:53:00;;;;;;;10.65;7.82;;;;;;;3.83;100.00;102779.59;5032049;28;20332;-74
2023/03/03 09:55:42;;;;;;;10.90;8.07;;;;;;;3.85;100.00;102771.84;5030718;28;20029;-74
2023/03/03 09:58:44;;;;;;;12.32;7.40;;;;;;;3.89;100.00;102780.56;5034646;28;20033;-74
2023/03/03 10:01:42;;;;;;;15.68;8.15;;;;;;;3.91;100.00;102774.59;5032993;28;20071;-74
2023/03/03 10:04:39;;;;;;;10.20;7.65;;;;;;;3.95;100.00;102776.38;5036724;28;20041;-73
2023/03/03 10:07:29;;;;;;;12.82;8.23;;;;;;;3.98;100.00;102784.22;5032386;28;20344;-73
2023/03/03 10:10:25;;;;;;;12.38;8.20;;;;;;;4.01;100.00;102781.66;5032284;28;20033;-74
2023/03/03 10:12:52;;;;;;;12.85;7.22;;;;;;;4.03;100.00;102781.69;5034261;28;20017;-74
2023/03/03 10:15:32;;;;;;;11.18;6.88;;;;;;;4.05;100.00;102780.00;5032905;28;20033;-73
2023/03/03 10:18:00;;;;;;;7.72;6.78;;;;;;;4.06;100.00;102776.56;5032705;28;20033;-74
2023/03/03 10:20:46;;;;;;;12.25;7.30;;;;;;;4.09;100.00;102781.78;5030875;28;20060;-73
2023/03/03 10:23:40;;;;;;;10.02;7.22;;;;;;;4.13;100.00;102777.53;5033767;28;20025;-73
2023/03/03 10:26:49;;;;;;;7.97;6.28;;;;;;;4.17;100.00;102780.22;5036642;28;20328;-73
2023/03/03 10:29:21;;;;;;;9.18;6.03;;;;;;;4.21;100.00;102774.22;5029798;28;20049;-74
2023/03/03 10:32:05;;;;;;;12.60;7.15;;;;;;;4.25;100.00;102771.69;5031195;28;20045;-74
2023/03/03 10:35:07;;;;;;;14.15;6.82;;;;;;;4.27;100.00;102778.63;5032698;28;20300;-74
2023/03/03 10:37:55;;;;;;;9.25;5.93;;;;;;;4.30;100.00;102783.88;5035412;28;20237;-73
2023/03/03 10:41:10;;;;;;;11.55;6.40;;;;;;;4.34;100.00;102780.47;5031619;28;20333;-73
2023/03/03 10:43:54;;;;;;;11.07;6.50;;;;;;;4.38;100.00;102778.81;5004303;28;20076;-73
2023/03/03 10:46:45;;;;;;;10.52;6.32;;;;;;;4.42;100.00;102776.31;5033987;28;20083;-73
2023/03/03 10:49:26;;;;;;;7.05;5.78;;;;;;;4.48;100.00;102772.94;5033749;28;20033;-74
2023/03/03 10:52:01;;;;;;;6.72;4.90;;;;;;;4.52;99.99;102773.84;5031914;28;20041;-73
2023/03/03 10:54:57;;;;;;;9.40;5.50;;;;;;;4.55;99.41;102785.16;5029526;28;20045;-73
2023/03/03 10:57:35;;;;;;;12.23;4.63;;;;;;;4.58;98.06;102781.72;5035461;28;20492;-73
2023/03/03 11:00:13;;;;;;;8.38;4.65;;;;;;;4.64;97.26;102776.63;5027667;28;20045;-74
2023/03/03 11:02:55;;;;;;;4.43;3.95;;;;;;;4.70;97.11;102781.03;5026272;28;20065;-74
2023/03/03 11:05:46;;;;;;;8.80;4.30;;;;;;;4.73;96.45;102774.16;5034366;28;20034;-73
2023/03/03 11:08:15;;;;;;;10.73;4.22;;;;;;;4.77;96.08;102772.50;5034797;28;20037;-74
2023/03/03 11:10:49;;;;;;;7.22;4.00;;;;;;;4.81;95.73;102776.88;5034267;28;20304;-73
2023/03/03 11:13:47;;;;;;;4.53;3.58;;;;;;;4.83;94.65;102764.78;5026801;28;20317;-74
2023/03/03 11:16:34;;;;;;;3.53;3.03;;;;;;;4.86;93.39;102774.31;5024599;28;20341;-74
2023/03/03 11:19:24;;;;;;;5.78;3.03;;;;;;;4.90;93.49;102768.34;5035037;28;20038;-74
2023/03/03 11:22:03;;;;;;;3.65;2.97;;;;;;;4.92;92.25;102770.09;5031866;28;20037;-73
2023/03/03 11:24:43;;;;;;;5.22;2.78;;;;;;;4.96;91.96;102774.47;5033917;28;20034;-73
2023/03/03 11:27:24;;;;;;;5.80;2.63;;;;;;;4.98;91.25;102766.72;5034733;28;20333;-74
2023/03/03 11:30:10;;;;;;;3.47;2.75;;;;;;;5.03;91.75;102764.19;5035637;28;20341;-74
2023/03/03 11:32:56;;;;;;;3.17;2.63;;;;;;;5.06;91.64;102765.09;5037165;28;20037;-73
2023/03/03 11:35:46;;;;;;;3.03;2.42;;;;;;;5.11;91.47;102760.84;5037925;28;20196;-74
2023/03/03 11:38:20;;;;;;;5.68;2.63;;;;;;;5.17;90.26;102767.84;5039189;28;20052;-73
2023/03/03 11:40:54;;;;;;;7.43;2.50;;;;;;;5.21;89.21;102760.97;5038992;28;20275;-72
2023/03/03 11:43:31;;;;;;;3.53;2.38;;;;;;;5.22;88.74;102761.00;5034891;28;20037;-73
2023/03/03 11:46:07;;;;;;;2.35;2.15;;;;;;;5.26;89.08;102761.91;5038048;28;20037;-72